Time;durP1;ratioP1;P1;durP2;ratioP2;P2;SDS_P1;SDS_P2;PMS_P1;PMS_P2;Temp;Humidity;BMP_temperature;BMP_pressure;BME280_temperature;BME280_humidity;BME280_pressure;Samples;Min_cycle;Max_cycle;Signal;HPM_P1;HPM_P2
2021/03/14 00:01:23;;;;;;;5.65;1.50;;;;;;;2.69;100.00;100334.91;5187342;28;20018;-66
2021/03/14 00:03:54;;;;;;;7.65;1.40;;;;;;;2.69;100.00;100337.56;5192861;28;20029;-66
2021/03/14 00:06:24;;;;;;;6.50;1.65;;;;;;;2.68;100.00;100346.47;5193159;28;20018;-67
2021/03/14 00:08:55;;;;;;;9.57;1.90;;;;;;;2.69;100.00;100353.44;5185019;28;20037;-67
2021/03/14 00:11:25;;;;;;;4.85;1.50;;;;;;;2.65;100.00;100358.16;5188668;28;20021;-67
2021/03/14 00:13:56;;;;;;;4.20;1.58;;;;;;;2.67;100.00;100355.41;5193048;28;20061;-66
2021/03/14 00:16:26;;;;;;;15.05;2.00;;;;;;;2.66;100.00;100359.88;5199551;28;20045;-67
2021/03/14 00:18:57;;;;;;;7.80;1.48;;;;;;;2.67;100.00;100373.94;5190062;28;20493;-67
2021/03/14 00:21:27;;;;;;;7.88;1.73;;;;;;;2.61;100.00;100370.00;5201418;28;20022;-67
2021/03/14 00:23:58;;;;;;;7.68;1.55;;;;;;;2.66;100.00;100373.09;5189694;28;20478;-67
2021/03/14 00:26:28;;;;;;;11.05;1.50;;;;;;;2.70;100.00;100384.25;5187018;28;20056;-67
2021/03/14 00:28:59;;;;;;;6.10;1.75;;;;;;;2.68;100.00;100381.75;5186635;28;20029;-67
2021/03/14 00:31:29;;;;;;;7.47;1.50;;;;;;;2.72;100.00;100382.34;5191609;28;20029;-67
2021/03/14 00:34:00;;;;;;;11.23;2.00;;;;;;;2.74;100.00;100383.06;5191174;28;20048;-67
2021/03/14 00:36:30;;;;;;;12.90;1.73;;;;;;;2.67;100.00;100381.88;5184258;28;20319;-67
2021/03/14 00:39:01;;;;;;;10.80;1.95;;;;;;;2.74;100.00;100391.84;5185793;28;20386;-67
2021/03/14 00:41:31;;;;;;;7.45;1.50;;;;;;;2.79;100.00;100396.75;5184141;28;20398;-67
2021/03/14 00:44:02;;;;;;;11.77;2.35;;;;;;;2.76;100.00;100394.34;5187319;28;20052;-67
2021/03/14 00:46:33;;;;;;;5.93;2.08;;;;;;;2.81;100.00;100406.28;5194493;28;20386;-67
2021/03/14 00:49:04;;;;;;;4.43;1.52;;;;;;;2.81;100.00;100413.34;5186461;28;20514;-67
2021/03/14 00:51:34;;;;;;;9.02;1.42;;;;;;;2.80;100.00;100422.28;5183676;28;20505;-67
2021/03/14 00:54:05;;;;;;;7.25;1.30;;;;;;;2.80;100.00;100417.81;5184001;28;20169;-67
2021/03/14 00:56:35;;;;;;;8.65;1.42;;;;;;;2.83;100.00;100422.88;5197000;28;20021;-67
2021/03/14 00:59:06;;;;;;;9.40;1.55;;;;;;;2.87;100.00;100428.75;5184647;28;20367;-67
2021/03/14 01:01:36;;;;;;;6.28;1.40;;;;;;;2.77;100.00;100436.63;5187325;28;20025;-67
2021/03/14 01:04:07;;;;;;;12.00;1.70;;;;;;;2.78;100.00;100440.94;5193132;28;20497;-67
2021/03/14 01:06:37;;;;;;;2.70;1.33;;;;;;;2.77;100.00;100444.56;5187808;28;20048;-67
2021/03/14 01:09:08;;;;;;;3.97;2.22;;;;;;;2.69;100.00;100444.34;5184496;28;20022;-67
2021/03/14 01:11:38;;;;;;;8.52;1.67;;;;;;;2.74;100.00;100451.91;5191079;28;20123;-67
2021/03/14 01:14:09;;;;;;;6.00;1.85;;;;;;;2.63;100.00;100455.44;5192988;28;20055;-67
2021/03/14 01:16:39;;;;;;;9.98;2.17;;;;;;;2.67;100.00;100456.06;5197094;28;20032;-67
2021/03/14 01:19:10;;;;;;;9.43;1.88;;;;;;;2.56;100.00;100462.19;5195392;28;20120;-67
2021/03/14 01:21:40;;;;;;;11.43;2.30;;;;;;;2.51;100.00;100467.03;5191296;28;20474;-67
2021/03/14 01:24:11;;;;;;;7.95;1.98;;;;;;;2.57;100.00;100459.44;5200469;28;20056;-67
2021/03/14 01:26:41;;;;;;;18.88;2.20;;;;;;;2.58;100.00;100473.53;5190532;28;20041;-67
2021/03/14 01:29:12;;;;;;;8.75;1.90;;;;;;;2.56;100.00;100464.84;5191578;28;20406;-67
2021/03/14 01:31:42;;;;;;;10.65;2.42;;;;;;;2.56;100.00;100475.44;5189074;28;20032;-67
2021/03/14 01:34:13;;;;;;;22.67;2.45;;;;;;;2.59;100.00;100480.50;5192766;28;20184;-66
2021/03/14 01:36:43;;;;;;;10.95;2.53;;;;;;;2.51;100.00;100477.59;5194295;28;20506;-66
2021/03/14 01:39:14;;;;;;;10.02;2.42;;;;;;;2.43;100.00;100480.06;5192217;28;20125;-67
2021/03/14 01:41:44;;;;;;;12.38;2.22;;;;;;;2.42;100.00;100476.56;5187476;28;20022;-67
2021/03/14 01:44:15;;;;;;;6.95;1.60;;;;;;;2.37;100.00;100486.69;5191859;28;20025;-67
2021/03/14 01:46:45;;;;;;;15.10;2.58;;;;;;;2.39;100.00;100483.91;5191698;28;20344;-67
2021/03/14 01:49:16;;;;;;;15.80;1.85;;;;;;;2.31;100.00;100485.38;5193735;28;20112;-67
2021/03/14 01:51:47;;;;;;;8.75;2.42;;;;;;;2.32;100.00;100492.34;5189375;28;20418;-67
2021/03/14 01:54:18;;;;;;;17.63;1.92;;;;;;;2.27;100.00;100494.50;5186687;28;20040;-67
2021/03/14 01:56:48;;;;;;;16.13;2.83;;;;;;;2.22;100.00;100488.75;5191367;28;20064;-67
2021/03/14 01:59:20;;;;;;;10.60;1.88;;;;;;;2.22;100.00;100493.19;5188651;28;20478;-67
2021/03/14 02:01:51;;;;;;;10.13;2.08;;;;;;;2.24;100.00;100499.19;5192250;28;20094;-66
2021/03/14 02:04:22;;;;;;;9.60;1.80;;;;;;;2.23;100.00;100498.34;5187513;28;20022;-67
2021/03/14 02:06:52;;;;;;;4.47;1.75;;;;;;;2.27;100.00;100509.56;5198130;28;20029;-66
2021/03/14 02:09:23;;;;;;;9.75;2.30;;;;;;;2.30;100.00;100507.47;5198303;28;20463;-66
2021/03/14 02:11:57;;;;;;;11.68;2.25;;;;;;;2.20;100.00;100514.47;5197939;28;20083;-66
2021/03/14 02:14:28;;;;;;;12.50;1.83;;;;;;;2.20;100.00;100525.06;5200246;28;20053;-66
2021/03/14 02:17:00;;;;;;;7.18;2.00;;;;;;;2.13;100.00;100523.03;5194107;28;20025;-67
2021/03/14 02:19:34;;;;;;;15.60;2.60;;;;;;;2.11;100.00;100525.81;5201515;28;20029;-66
2021/03/14 02:22:05;;;;;;;13.25;2.05;;;;;;;2.02;100.00;100522.06;5192401;28;20052;-66
2021/03/14 02:24:44;;;;;;;11.45;2.45;;;;;;;2.04;100.00;100527.22;5201864;28;20095;-66
2021/03/14 02:27:16;;;;;;;4.70;1.95;;;;;;;2.04;100.00;100528.06;5198270;28;20292;-66
2021/03/14 02:29:47;;;;;;;9.10;2.20;;;;;;;2.08;100.00;100528.69;5201940;28;20126;-66
2021/03/14 02:32:19;;;;;;;9.15;2.45;;;;;;;2.08;100.00;100539.25;5201513;28;20127;-67
2021/03/14 02:34:56;;;;;;;9.88;1.92;;;;;;;2.09;100.00;100540.94;5204530;28;20025;-66
2021/03/14 02:37:28;;;;;;;11.88;2.20;;;;;;;2.07;100.00;100545.53;5201985;28;20029;-66
2021/03/14 02:40:00;;;;;;;7.00;1.60;;;;;;;2.11;100.00;100536.38;5199582;28;20040;-66
2021/03/14 02:42:32;;;;;;;12.52;2.22;;;;;;;2.07;100.00;100534.94;5200829;28;20586;-66
2021/03/14 02:45:04;;;;;;;12.18;1.98;;;;;;;2.16;100.00;100544.81;5198489;28;20054;-67
2021/03/14 02:47:37;;;;;;;13.30;1.90;;;;;;;2.08;100.00;100541.91;5201492;28;20029;-66
2021/03/14 02:50:13;;;;;;;12.52;2.35;;;;;;;2.06;100.00;100551.78;5196884;28;20439;-66
2021/03/14 02:52:45;;;;;;;;;;;;;;;2.06;100.00;100546.50;5199600;28;20029;-66
2021/03/14 02:55:20;;;;;;;10.45;2.25;;;;;;;2.10;100.00;100552.38;5186258;28;20008;-66
2021/03/14 02:57:52;;;;;;;7.35;2.00;;;;;;;2.06;100.00;100551.78;5189847;28;20056;-66
2021/03/14 03:00:25;;;;;;;7.88;1.70;;;;;;;2.12;100.00;100546.00;5184850;28;20030;-66
2021/03/14 03:02:57;;;;;;;7.63;1.90;;;;;;;2.10;100.00;100550.56;5191286;28;20080;-65
2021/03/14 03:05:29;;;;;;;12.55;2.05;;;;;;;2.10;100.00;100561.13;5193090;28;20018;-66
2021/03/14 03:08:01;;;;;;;9.27;1.92;;;;;;;2.16;100.00;100562.47;5185852;28;20075;-67
2021/03/14 03:10:41;;;;;;;10.73;2.10;;;;;;;2.07;100.00;100558.75;5186461;28;20062;-66
2021/03/14 03:13:15;;;;;;;12.68;1.95;;;;;;;2.04;100.00;100562.47;5185512;28;20548;-66
2021/03/14 03:15:47;;;;;;;13.25;1.77;;;;;;;2.08;100.00;100565.72;5189537;28;20025;-66
2021/03/14 03:18:19;;;;;;;10.00;2.35;;;;;;;2.02;100.00;100569.69;5185650;28;20105;-66
2021/03/14 03:20:51;;;;;;;9.38;1.70;;;;;;;1.96;100.00;100564.03;5187994;28;20650;-66
2021/03/14 03:23:22;;;;;;;10.30;1.95;;;;;;;1.99;100.00;100564.63;5191988;28;20025;-66
2021/03/14 03:25:52;;;;;;;10.63;1.92;;;;;;;1.94;100.00;100571.22;5195093;28;20545;-66
2021/03/14 03:28:23;;;;;;;6.50;1.98;;;;;;;2.00;100.00;100573.41;5196862;28;20056;-66
2021/03/14 03:30:53;;;;;;;6.10;1.50;;;;;;;2.00;100.00;100570.75;5192931;28;20025;-66
2021/03/14 03:33:24;;;;;;;3.80;1.88;;;;;;;2.03;100.00;100575.81;5191276;28;20506;-66
2021/03/14 03:35:55;;;;;;;8.40;2.22;;;;;;;1.96;100.00;100574.63;5191035;28;20060;-66
2021/03/14 03:38:26;;;;;;;9.75;1.88;;;;;;;2.00;100.00;100583.97;5192711;28;20079;-67
2021/03/14 03:40:57;;;;;;;11.63;1.95;;;;;;;1.93;100.00;100593.34;5189504;28;20036;-66
2021/03/14 03:43:32;;;;;;;17.27;2.80;;;;;;;1.88;100.00;100592.88;5198022;28;20116;-66
2021/03/14 03:46:07;;;;;;;8.63;2.25;;;;;;;1.94;100.00;100593.22;5186073;28;20033;-66
2021/03/14 03:48:43;;;;;;;9.70;2.30;;;;;;;1.89;100.00;100600.69;5188548;28;20113;-66
2021/03/14 03:51:19;;;;;;;12.32;2.42;;;;;;;1.88;100.00;100601.66;5190602;28;20025;-66
2021/03/14 03:53:51;;;;;;;16.20;2.95;;;;;;;1.90;100.00;100585.66;5190564;28;20026;-66
2021/03/14 03:56:23;;;;;;;9.75;2.08;;;;;;;1.89;100.00;100603.31;5190094;28;20342;-66
2021/03/14 03:58:54;;;;;;;13.23;2.35;;;;;;;1.92;100.00;100610.19;5193458;28;20099;-66
2021/03/14 04:01:24;;;;;;;9.57;1.98;;;;;;;1.92;100.00;100611.03;5201227;28;20041;-67
2021/03/14 04:03:56;;;;;;;17.02;2.08;;;;;;;1.95;100.00;100626.66;5194821;28;20025;-67
2021/03/14 04:06:27;;;;;;;9.48;2.22;;;;;;;1.94;100.00;100626.78;5197798;28;20037;-67
2021/03/14 04:09:00;;;;;;;21.33;3.17;;;;;;;1.99;100.00;100622.81;5199949;28;20490;-66
2021/03/14 04:11:31;;;;;;;15.77;3.05;;;;;;;2.11;100.00;100629.00;5195621;28;20021;-66
2021/03/14 04:14:01;;;;;;;12.00;1.83;;;;;;;2.15;100.00;100633.09;5201571;28;20030;-67
2021/03/14 04:16:32;;;;;;;10.65;1.90;;;;;;;2.20;100.00;100628.28;5194999;28;20021;-66
2021/03/14 04:19:06;;;;;;;7.47;2.08;;;;;;;2.29;100.00;100626.72;5199139;28;20021;-66
2021/03/14 04:21:38;;;;;;;11.10;2.05;;;;;;;2.38;100.00;100625.19;5197623;28;20408;-67
2021/03/14 04:24:12;;;;;;;10.05;2.08;;;;;;;2.38;100.00;100627.84;5200469;28;20474;-67
2021/03/14 04:26:45;;;;;;;13.80;2.47;;;;;;;2.41;100.00;100624.94;5199294;28;20030;-66
2021/03/14 04:29:18;;;;;;;12.85;1.95;;;;;;;2.40;100.00;100634.69;5201392;28;20025;-66
2021/03/14 04:31:51;;;;;;;17.75;2.00;;;;;;;2.41;100.00;100633.75;5199169;28;20029;-67
2021/03/14 04:34:24;;;;;;;14.80;2.40;;;;;;;2.41;100.00;100646.13;5200635;28;20116;-67
2021/03/14 04:36:55;;;;;;;13.98;2.10;;;;;;;2.42;100.00;100646.03;5201998;28;20397;-66
2021/03/14 04:39:25;;;;;;;7.22;1.50;;;;;;;2.33;100.00;100644.91;5199837;28;20014;-66
2021/03/14 04:41:56;;;;;;;11.07;1.95;;;;;;;2.24;100.00;100652.72;5200340;28;20028;-66
2021/03/14 04:44:29;;;;;;;7.57;1.80;;;;;;;2.20;100.00;100667.13;5199813;28;20033;-66
2021/03/14 04:47:00;;;;;;;14.95;2.35;;;;;;;2.14;100.00;100660.50;5201657;28;20060;-67
2021/03/14 04:49:33;;;;;;;14.43;1.70;;;;;;;2.04;100.00;100663.00;5200848;28;20029;-66
2021/03/14 04:52:05;;;;;;;5.90;2.10;;;;;;;1.95;100.00;100663.69;5201298;28;20026;-67
2021/03/14 04:54:37;;;;;;;7.35;1.90;;;;;;;1.96;100.00;100675.16;5196153;28;20021;-66
2021/03/14 04:57:08;;;;;;;11.20;2.17;;;;;;;1.94;100.00;100672.59;5189950;28;20493;-66
2021/03/14 04:59:41;;;;;;;13.20;3.47;;;;;;;1.95;100.00;100684.03;5195471;28;20021;-66
2021/03/14 05:02:13;;;;;;;20.80;2.05;;;;;;;2.01;100.00;100686.25;5194002;28;20026;-67
2021/03/14 05:04:47;;;;;;;13.50;1.60;;;;;;;2.10;100.00;100684.69;5197710;28;20039;-66
2021/03/14 05:07:19;;;;;;;12.93;2.90;;;;;;;2.22;100.00;100689.06;5197814;28;20099;-67
2021/03/14 05:09:50;;;;;;;8.63;2.15;;;;;;;2.30;100.00;100692.78;5197403;28;20025;-66
2021/03/14 05:12:21;;;;;;;14.43;2.15;;;;;;;2.39;100.00;100698.34;5196958;28;20397;-66
2021/03/14 05:14:54;;;;;;;12.75;2.63;;;;;;;2.45;100.00;100693.44;5197710;28;20067;-66
2021/03/14 05:17:24;;;;;;;11.27;2.20;;;;;;;2.49;100.00;100688.75;5197163;28;20040;-67
2021/03/14 05:19:55;;;;;;;11.73;2.45;;;;;;;2.54;100.00;100684.78;5195985;28;20393;-67
2021/03/14 05:22:27;;;;;;;14.63;1.98;;;;;;;2.60;100.00;100692.25;5194961;28;20556;-66
2021/03/14 05:25:00;;;;;;;14.77;3.05;;;;;;;2.68;100.00;100698.75;5197126;28;20325;-66
2021/03/14 05:27:31;;;;;;;14.88;3.15;;;;;;;2.73;100.00;100705.38;5187002;28;20036;-66
2021/03/14 05:30:05;;;;;;;10.52;1.88;;;;;;;2.71;100.00;100699.38;5187971;28;20057;-66
2021/03/14 05:32:36;;;;;;;13.60;3.45;;;;;;;2.69;100.00;100695.16;5190639;28;20117;-66
2021/03/14 05:35:07;;;;;;;17.73;2.28;;;;;;;2.74;100.00;100701.78;5189762;28;20133;-67
2021/03/14 05:37:38;;;;;;;21.25;3.60;;;;;;;2.74;100.00;100707.06;5197123;28;20018;-66
2021/03/14 05:40:09;;;;;;;10.93;2.20;;;;;;;2.79;100.00;100714.66;5197508;28;20028;-66
2021/03/14 05:42:40;;;;;;;10.65;2.50;;;;;;;2.80;100.00;100719.84;5188805;28;20029;-67
2021/03/14 05:45:11;;;;;;;13.45;3.15;;;;;;;2.91;100.00;100712.84;5192427;28;20029;-66
2021/03/14 05:47:42;;;;;;;11.38;2.42;;;;;;;2.89;100.00;100718.28;5192514;28;20018;-67
2021/03/14 05:50:16;;;;;;;15.57;2.70;;;;;;;2.94;100.00;100721.41;5192319;28;20036;-66
2021/03/14 05:52:49;;;;;;;12.68;2.60;;;;;;;2.90;100.00;100719.13;5187992;28;20147;-66
2021/03/14 05:55:24;;;;;;;12.38;2.10;;;;;;;2.99;100.00;100731.66;5196855;28;20026;-66
2021/03/14 05:57:56;;;;;;;10.05;2.30;;;;;;;2.98;100.00;100728.16;5181268;28;20493;-66
2021/03/14 06:00:28;;;;;;;13.10;2.45;;;;;;;2.94;100.00;100732.00;5193859;28;20032;-66
2021/03/14 06:03:02;;;;;;;11.20;2.55;;;;;;;3.00;100.00;100742.13;5193230;28;20484;-66
2021/03/14 06:05:32;;;;;;;8.93;2.53;;;;;;;2.98;100.00;100754.66;5188065;28;20055;-66
2021/03/14 06:08:03;;;;;;;12.60;2.25;;;;;;;3.04;100.00;100753.34;5187080;28;20445;-67
2021/03/14 06:10:33;;;;;;;12.10;2.65;;;;;;;2.99;100.00;100752.84;5192805;28;20026;-67
2021/03/14 06:13:06;;;;;;;18.77;2.88;;;;;;;2.99;100.00;100750.22;5180983;28;20037;-67
2021/03/14 06:15:36;;;;;;;11.55;2.80;;;;;;;2.94;100.00;100749.72;5195092;28;20021;-66
2021/03/14 06:18:08;;;;;;;11.10;3.55;;;;;;;2.96;100.00;100756.59;5184490;28;20041;-66
2021/03/14 06:20:42;;;;;;;9.07;2.83;;;;;;;2.90;100.00;100770.31;5187641;28;20122;-67
2021/03/14 06:23:15;;;;;;;8.68;2.53;;;;;;;2.92;100.00;100767.56;5186384;28;20021;-67
2021/03/14 06:25:48;;;;;;;10.48;4.07;;;;;;;2.90;100.00;100775.59;5193115;28;20029;-67
2021/03/14 06:28:36;;;;;;;9.77;2.72;;;;;;;2.93;100.00;100788.63;5196741;28;20405;-66
2021/03/14 06:31:20;;;;;;;10.98;2.80;;;;;;;2.91;100.00;100795.00;5192789;28;20099;-66
2021/03/14 06:33:51;;;;;;;6.80;2.90;;;;;;;2.91;100.00;100798.50;5194891;28;20052;-66
2021/03/14 06:36:21;;;;;;;9.00;2.88;;;;;;;2.90;100.00;100803.91;5200027;28;20045;-66
2021/03/14 06:39:01;;;;;;;16.52;3.58;;;;;;;2.85;100.00;100807.75;5190701;28;20055;-66
2021/03/14 06:41:37;;;;;;;35.17;20.80;;;;;;;2.87;100.00;100805.00;5195459;28;20107;-69
2021/03/14 06:44:20;;;;;;;;;;;;;;;2.83;100.00;100809.69;5196109;28;20389;-68
2021/03/14 06:46:50;;;;;;;12.38;4.50;;;;;;;2.78;100.00;100811.84;5193001;28;20222;-69
2021/03/14 06:49:23;;;;;;;8.23;3.80;;;;;;;2.75;100.00;100817.38;5197372;28;20389;-69
2021/03/14 06:51:57;;;;;;;16.70;4.78;;;;;;;2.76;100.00;100826.16;5198610;28;20029;-69
2021/03/14 06:54:33;;;;;;;7.60;4.27;;;;;;;2.69;100.00;100839.03;5200961;28;20048;-69
2021/03/14 06:57:12;;;;;;;17.15;5.15;;;;;;;2.72;100.00;100840.63;5188311;28;20105;-69
2021/03/14 06:59:51;;;;;;;16.95;4.25;;;;;;;2.71;100.00;100838.91;5199693;28;20025;-66
2021/03/14 07:02:29;;;;;;;11.15;4.25;;;;;;;2.70;100.00;100843.38;5192290;28;20537;-67
2021/03/14 07:05:03;;;;;;;14.10;5.00;;;;;;;2.74;100.00;100850.13;5201782;28;20068;-66
2021/03/14 07:07:41;;;;;;;13.00;5.13;;;;;;;2.77;100.00;100862.31;5192500;28;20075;-66
2021/03/14 07:10:15;;;;;;;17.05;5.75;;;;;;;2.77;100.00;100864.97;5192438;28;20280;-66
2021/03/14 07:12:47;;;;;;;13.95;5.50;;;;;;;2.76;100.00;100861.47;5188077;28;20395;-66
2021/03/14 07:15:23;;;;;;;15.23;5.95;;;;;;;2.81;100.00;100869.91;5202629;28;20049;-66
2021/03/14 07:17:56;;;;;;;13.82;6.55;;;;;;;2.74;100.00;100871.31;5187511;28;20341;-67
2021/03/14 07:20:30;;;;;;;17.90;6.28;;;;;;;2.85;100.00;100870.50;5188798;28;20375;-67
2021/03/14 07:23:04;;;;;;;14.23;5.57;;;;;;;2.93;100.00;100870.78;5185962;28;20034;-67
2021/03/14 07:25:40;;;;;;;15.40;7.00;;;;;;;2.98;100.00;100873.09;5201918;28;20105;-67
2021/03/14 07:28:12;;;;;;;18.25;7.57;;;;;;;3.10;100.00;100875.63;5201451;28;20268;-68
2021/03/14 07:30:43;;;;;;;18.00;6.68;;;;;;;3.13;100.00;100887.81;5210881;28;20025;-68
2021/03/14 07:33:13;;;;;;;16.55;6.55;;;;;;;3.20;100.00;100889.03;5196412;28;20155;-67
2021/03/14 07:35:44;;;;;;;17.25;6.10;;;;;;;3.25;100.00;100893.97;5195914;28;20116;-67
2021/03/14 07:38:15;;;;;;;14.85;6.72;;;;;;;3.26;100.00;100893.88;5197107;28;20053;-67
2021/03/14 07:40:45;;;;;;;21.27;8.52;;;;;;;3.34;100.00;100904.72;5198345;28;20084;-67
2021/03/14 07:43:16;;;;;;;15.18;6.05;;;;;;;3.42;100.00;100905.94;5198326;28;20083;-68
2021/03/14 07:45:47;;;;;;;19.13;7.75;;;;;;;3.40;100.00;100918.47;5193244;28;20048;-67
2021/03/14 07:48:17;;;;;;;20.95;7.95;;;;;;;3.36;100.00;100913.41;5198418;28;20022;-67
2021/03/14 07:50:48;;;;;;;14.43;6.50;;;;;;;3.43;100.00;100927.03;5195231;28;20393;-67
2021/03/14 07:53:21;;;;;;;19.90;7.03;;;;;;;3.42;100.00;100928.00;5201247;28;20022;-67
2021/03/14 07:55:55;;;;;;;14.95;6.20;;;;;;;3.40;100.00;100939.69;5195599;28;20123;-67
2021/03/14 07:58:26;;;;;;;19.23;6.60;;;;;;;3.43;100.00;100934.16;5187857;28;20749;-67
2021/03/14 08:01:21;;;;;;;18.92;7.50;;;;;;;3.52;100.00;100944.06;5189345;28;20125;-67
2021/03/14 08:03:52;;;;;;;14.93;6.95;;;;;;;3.66;100.00;100945.63;5196128;28;20029;-67
2021/03/14 08:06:48;;;;;;;19.13;6.93;;;;;;;3.73;100.00;100953.00;5200081;28;20025;-67
2021/03/14 08:09:41;;;;;;;16.15;5.90;;;;;;;3.85;100.00;100956.50;5191323;28;20155;-67
2021/03/14 08:12:15;;;;;;;17.50;6.45;;;;;;;3.93;100.00;100969.19;5189074;28;20502;-67
2021/03/14 08:14:48;;;;;;;14.13;6.85;;;;;;;4.05;100.00;100966.38;5193910;28;20030;-67
2021/03/14 08:17:23;;;;;;;22.08;7.55;;;;;;;4.25;100.00;100959.50;5193301;28;20116;-67
2021/03/14 08:19:53;;;;;;;14.27;7.15;;;;;;;4.39;100.00;100969.88;5198795;28;20033;-67
2021/03/14 08:22:37;;;;;;;18.92;6.47;;;;;;;4.38;100.00;100989.44;5197169;28;20044;-67
2021/03/14 08:25:28;;;;;;;19.08;7.10;;;;;;;4.49;100.00;100977.94;5192892;28;20465;-67
2021/03/14 08:28:01;;;;;;;16.80;6.90;;;;;;;4.67;100.00;100983.59;5195174;28;20490;-67
2021/03/14 08:30:32;;;;;;;18.05;7.00;;;;;;;4.75;100.00;100989.09;5197908;28;20396;-67
2021/03/14 08:33:17;;;;;;;22.13;9.18;;;;;;;4.80;100.00;100989.56;5189200;28;20383;-67
2021/03/14 08:36:03;;;;;;;23.92;10.77;;;;;;;4.85;100.00;101000.66;5187310;28;20033;-67
2021/03/14 08:38:44;;;;;;;20.30;7.30;;;;;;;4.91;100.00;101000.16;5187733;28;20046;-68
2021/03/14 08:41:22;;;;;;;17.40;7.13;;;;;;;5.05;100.00;101011.50;5199162;28;20104;-68
2021/03/14 08:43:56;;;;;;;17.00;8.15;;;;;;;5.13;100.00;101014.38;5199909;28;20031;-68
2021/03/14 08:46:46;;;;;;;20.17;10.93;;;;;;;5.25;100.00;101026.63;5197261;28;20040;-68
2021/03/14 08:49:20;;;;;;;24.45;7.00;;;;;;;5.48;100.00;101027.38;5191362;28;20108;-68
2021/03/14 08:51:51;;;;;;;22.45;7.90;;;;;;;5.70;100.00;101026.41;5186869;28;20029;-68
2021/03/14 08:54:29;;;;;;;13.77;7.15;;;;;;;5.76;100.00;101035.69;5199501;28;20029;-68
2021/03/14 08:57:06;;;;;;;15.02;6.43;;;;;;;5.76;100.00;101043.66;5199428;28;20377;-68
2021/03/14 08:59:46;;;;;;;16.60;5.68;;;;;;;5.80;100.00;101048.59;5183661;28;20040;-68
2021/03/14 09:02:28;;;;;;;17.67;7.60;;;;;;;5.82;100.00;101051.13;5195227;28;20025;-68
2021/03/14 09:05:28;;;;;;;17.02;5.82;;;;;;;5.88;100.00;101043.47;5183376;28;20030;-68
2021/03/14 09:08:00;;;;;;;16.85;5.60;;;;;;;6.00;100.00;101046.09;5191279;28;20745;-67
2021/03/14 09:10:35;;;;;;;14.10;5.50;;;;;;;6.02;100.00;101044.13;5189749;28;20037;-68
2021/03/14 09:13:05;;;;;;;14.18;5.47;;;;;;;6.13;100.00;101055.56;5199008;28;20022;-67
2021/03/14 09:15:36;;;;;;;11.80;4.95;;;;;;;6.22;100.00;101053.91;5195279;28;20033;-68
2021/03/14 09:18:06;;;;;;;28.77;5.80;;;;;;;6.31;100.00;101063.78;5192064;28;20390;-68
2021/03/14 09:20:37;;;;;;;20.70;5.22;;;;;;;6.39;100.00;101058.63;5198383;28;20056;-68
2021/03/14 09:23:07;;;;;;;15.40;4.65;;;;;;;6.45;100.00;101068.75;5199061;28;20036;-68
2021/03/14 09:25:38;;;;;;;15.63;4.50;;;;;;;6.58;100.00;101071.19;5199164;28;20033;-68
2021/03/14 09:28:08;;;;;;;14.90;4.05;;;;;;;6.61;100.00;101070.06;5192777;28;20036;-68
2021/03/14 09:30:39;;;;;;;8.45;3.75;;;;;;;6.56;100.00;101073.13;5196329;28;20516;-68
2021/03/14 09:33:09;;;;;;;11.27;3.80;;;;;;;6.60;100.00;101077.22;5197504;28;20573;-68
2021/03/14 09:35:40;;;;;;;9.82;4.32;;;;;;;6.73;100.00;101080.50;5199173;28;20022;-68
2021/03/14 09:38:14;;;;;;;12.82;3.67;;;;;;;6.77;100.00;101089.06;5198181;28;20056;-68
2021/03/14 09:40:47;;;;;;;14.15;3.72;;;;;;;6.90;100.00;101088.81;5196534;28;20112;-68
2021/03/14 09:43:22;;;;;;;15.23;4.00;;;;;;;7.05;100.00;101090.13;5197403;28;20171;-68
2021/03/14 09:45:56;;;;;;;6.67;3.30;;;;;;;7.13;100.00;101092.09;5212415;28;20040;-68
2021/03/14 09:48:29;;;;;;;13.88;3.50;;;;;;;7.08;100.00;101102.31;5196945;28;20056;-68
2021/03/14 09:51:08;;;;;;;14.15;6.53;;;;;;;6.99;100.00;101109.34;5195865;28;20119;-68
2021/03/14 09:53:40;;;;;;;23.60;8.43;;;;;;;6.93;100.00;101109.91;5198983;28;20037;-68
2021/03/14 09:56:13;;;;;;;9.55;3.92;;;;;;;6.92;100.00;101110.84;5197316;28;20404;-68
2021/03/14 09:58:44;;;;;;;17.52;6.03;;;;;;;6.96;100.00;101115.78;5192180;28;20176;-68
2021/03/14 10:01:14;;;;;;;17.02;6.10;;;;;;;7.06;100.00;101120.31;5204869;28;20029;-69
2021/03/14 10:03:46;;;;;;;15.75;5.00;;;;;;;7.20;100.00;101126.09;5198803;28;20018;-68
2021/03/14 10:06:16;;;;;;;9.73;3.65;;;;;;;7.23;100.00;101127.66;5187279;28;20116;-68
2021/03/14 10:08:47;;;;;;;14.45;3.83;;;;;;;7.29;100.00;101116.44;5182580;28;20120;-68
2021/03/14 10:11:17;;;;;;;6.10;2.35;;;;;;;7.11;100.00;101118.06;5180826;28;20527;-68
2021/03/14 10:13:52;;;;;;;10.15;3.00;;;;;;;7.10;100.00;101124.41;5180076;28;20025;-68
2021/03/14 10:16:24;;;;;;;9.80;2.70;;;;;;;7.18;100.00;101120.06;5194283;28;20040;-68
2021/03/14 10:18:59;;;;;;;10.10;3.67;;;;;;;7.27;100.00;101124.56;5188633;28;20021;-68
2021/03/14 10:21:29;;;;;;;9.02;3.75;;;;;;;7.36;100.00;101133.56;5186236;28;20110;-68
2021/03/14 10:24:22;;;;;;;7.45;2.63;;;;;;;7.42;100.00;101135.69;5198643;28;20045;-68
2021/03/14 10:26:59;;;;;;;11.43;2.85;;;;;;;7.55;100.00;101127.41;5189444;28;20029;-68
2021/03/14 10:29:32;;;;;;;8.10;3.78;;;;;;;7.79;100.00;101135.00;5202245;28;20103;-68
2021/03/14 10:32:04;;;;;;;28.52;11.40;;;;;;;7.88;100.00;101138.63;5188259;28;20054;-68
2021/03/14 10:34:35;;;;;;;13.25;2.55;;;;;;;7.84;100.00;101134.59;5192918;28;20027;-68
2021/03/14 10:37:24;;;;;;;5.35;3.05;;;;;;;7.86;100.00;101132.59;5210143;28;20026;-68
2021/03/14 10:39:57;;;;;;;19.17;5.35;;;;;;;7.86;100.00;101130.78;5193116;28;20426;-68
2021/03/14 10:42:35;;;;;;;11.15;5.63;;;;;;;7.81;100.00;101142.88;5193826;28;20025;-68
2021/03/14 10:45:10;;;;;;;12.32;2.38;;;;;;;7.74;100.00;101145.28;5201854;28;20029;-68
2021/03/14 10:47:42;;;;;;;4.35;2.00;;;;;;;7.77;100.00;101148.47;5194376;28;20064;-68
2021/03/14 10:50:17;;;;;;;7.03;1.65;;;;;;;7.75;100.00;101154.97;5196155;28;20082;-68
2021/03/14 10:53:06;;;;;;;;;;;;;;;7.69;100.00;101166.22;5190860;28;20044;-68
2021/03/14 10:55:38;;;;;;;5.10;1.38;;;;;;;7.75;100.00;101171.81;5199897;28;19966;-68
2021/03/14 10:58:13;;;;;;;6.88;1.83;;;;;;;7.91;100.00;101168.59;5194951;28;20234;-68
2021/03/14 11:00:47;;;;;;;4.70;1.60;;;;;;;8.10;100.00;101182.94;5187344;28;20025;-68
2021/03/14 11:03:24;;;;;;;3.50;1.23;;;;;;;8.27;100.00;101177.69;5201948;28;20389;-68
2021/03/14 11:06:17;;;;;;;4.80;1.15;;;;;;;8.43;100.00;101189.66;5201562;28;20577;-68
2021/03/14 11:08:53;;;;;;;6.15;1.38;;;;;;;8.57;100.00;101202.56;5201287;28;20036;-68
2021/03/14 11:11:37;;;;;;;9.82;1.40;;;;;;;8.57;100.00;101198.06;5201765;28;20025;-68
2021/03/14 11:14:24;;;;;;;4.60;1.20;;;;;;;8.52;100.00;101202.16;5200298;28;20072;-68
2021/03/14 11:17:13;;;;;;;5.88;5.28;;;;;;;8.39;100.00;101210.50;5201509;28;20162;-68
2021/03/14 11:19:47;;;;;;;10.73;4.53;;;;;;;8.37;100.00;101206.28;5201101;28;20017;-67
2021/03/14 11:22:19;;;;;;;11.73;2.30;;;;;;;8.36;100.00;101218.81;5200677;28;20056;-68
2021/03/14 11:24:51;;;;;;;6.63;2.30;;;;;;;8.39;100.00;101212.34;5199710;28;20065;-68
2021/03/14 11:27:21;;;;;;;4.65;2.42;;;;;;;8.38;100.00;101213.31;5201429;28;20573;-68
2021/03/14 11:29:52;;;;;;;6.22;2.55;;;;;;;8.42;100.00;101220.91;5201697;28;20095;-68
2021/03/14 11:32:22;;;;;;;5.88;2.20;;;;;;;8.56;100.00;101225.81;5197567;28;20144;-69
2021/03/14 11:34:53;;;;;;;10.38;2.00;;;;;;;8.61;100.00;101228.06;5192936;28;20036;-68
2021/03/14 11:37:23;;;;;;;11.10;2.38;;;;;;;8.49;100.00;101226.53;5196623;28;20032;-68
2021/03/14 11:39:54;;;;;;;6.95;2.30;;;;;;;8.42;100.00;101239.63;5197221;28;20104;-68
2021/03/14 11:42:24;;;;;;;9.30;2.35;;;;;;;8.61;100.00;101230.72;5200462;28;20417;-67
2021/03/14 11:44:55;;;;;;;8.40;2.60;;;;;;;8.90;100.00;101236.00;5196070;28;20025;-68
2021/03/14 11:47:25;;;;;;;11.77;2.13;;;;;;;9.46;100.00;101234.19;5196401;28;20034;-67
2021/03/14 11:49:56;;;;;;;6.38;1.70;;;;;;;9.64;100.00;101231.53;5200290;28;20026;-68